sensor_id;sensor_type;location;lat;lon;timestamp;P1;durP1;ratioP1;P2;durP2;ratioP2
23146;SDS011;11742;53.532;-1.478;2022-11-22T00:01:02;1.88;;;1.23;;
23146;SDS011;11742;53.532;-1.478;2022-11-22T00:03:28;1.23;;;0.85;;
23146;SDS011;11742;53.532;-1.478;2022-11-22T00:05:54;0.90;;;0.70;;
23146;SDS011;11742;53.532;-1.478;2022-11-22T00:08:19;1.33;;;0.70;;
23146;SDS011;11742;53.532;-1.478;2022-11-22T00:10:49;2.08;;;0.90;;
23146;SDS011;11742;53.532;-1.478;2022-11-22T00:13:15;1.65;;;1.02;;
23146;SDS011;11742;53.532;-1.478;2022-11-22T00:15:42;0.90;;;0.80;;
23146;SDS011;11742;53.532;-1.478;2022-11-22T00:18:08;2.00;;;0.98;;
23146;SDS011;11742;53.532;-1.478;2022-11-22T00:20:33;1.15;;;0.70;;
23146;SDS011;11742;53.532;-1.478;2022-11-22T00:22:59;1.65;;;0.73;;
23146;SDS011;11742;53.532;-1.478;2022-11-22T00:25:25;1.13;;;0.90;;
23146;SDS011;11742;53.532;-1.478;2022-11-22T00:27:51;1.27;;;0.95;;
23146;SDS011;11742;53.532;-1.478;2022-11-22T00:30:17;1.00;;;0.77;;
23146;SDS011;11742;53.532;-1.478;2022-11-22T00:32:43;1.80;;;0.70;;
23146;SDS011;11742;53.532;-1.478;2022-11-22T00:35:09;2.05;;;0.85;;
23146;SDS011;11742;53.532;-1.478;2022-11-22T00:37:36;1.08;;;0.70;;
23146;SDS011;11742;53.532;-1.478;2022-11-22T00:40:02;1.08;;;0.90;;
23146;SDS011;11742;53.532;-1.478;2022-11-22T00:42:29;0.60;;;0.60;;
23146;SDS011;11742;53.532;-1.478;2022-11-22T00:44:54;0.85;;;0.60;;
23146;SDS011;11742;53.532;-1.478;2022-11-22T00:47:20;1.25;;;0.80;;
23146;SDS011;11742;53.532;-1.478;2022-11-22T00:49:45;0.85;;;0.85;;
23146;SDS011;11742;53.532;-1.478;2022-11-22T00:52:11;0.80;;;0.80;;
23146;SDS011;11742;53.532;-1.478;2022-11-22T00:54:37;1.27;;;0.68;;
23146;SDS011;11742;53.532;-1.478;2022-11-22T00:57:02;0.75;;;0.60;;
23146;SDS011;11742;53.532;-1.478;2022-11-22T00:59:28;1.13;;;0.70;;
23146;SDS011;11742;53.532;-1.478;2022-11-22T01:01:54;1.20;;;0.77;;
23146;SDS011;11742;53.532;-1.478;2022-11-22T01:04:19;1.15;;;0.63;;
23146;SDS011;11742;53.532;-1.478;2022-11-22T01:06:45;1.92;;;0.63;;
23146;SDS011;11742;53.532;-1.478;2022-11-22T01:09:11;0.85;;;0.70;;
23146;SDS011;11742;53.532;-1.478;2022-11-22T01:11:42;2.13;;;0.77;;
23146;SDS011;11742;53.532;-1.478;2022-11-22T01:14:08;2.17;;;0.70;;
23146;SDS011;11742;53.532;-1.478;2022-11-22T01:16:34;1.33;;;0.65;;
23146;SDS011;11742;53.532;-1.478;2022-11-22T01:18:59;1.52;;;0.82;;
23146;SDS011;11742;53.532;-1.478;2022-11-22T01:21:25;1.20;;;0.80;;
23146;SDS011;11742;53.532;-1.478;2022-11-22T01:23:50;1.13;;;0.70;;
23146;SDS011;11742;53.532;-1.478;2022-11-22T01:26:16;1.35;;;0.68;;
23146;SDS011;11742;53.532;-1.478;2022-11-22T01:28:42;1.38;;;0.80;;
23146;SDS011;11742;53.532;-1.478;2022-11-22T01:31:07;1.83;;;0.70;;
23146;SDS011;11742;53.532;-1.478;2022-11-22T01:33:33;0.75;;;0.60;;
23146;SDS011;11742;53.532;-1.478;2022-11-22T01:35:58;1.10;;;0.80;;
23146;SDS011;11742;53.532;-1.478;2022-11-22T01:38:24;1.75;;;0.60;;
23146;SDS011;11742;53.532;-1.478;2022-11-22T01:40:50;0.50;;;0.50;;
23146;SDS011;11742;53.532;-1.478;2022-11-22T01:43:23;3.58;;;0.90;;
23146;SDS011;11742;53.532;-1.478;2022-11-22T01:45:51;0.63;;;0.63;;
23146;SDS011;11742;53.532;-1.478;2022-11-22T01:51:01;1.75;;;0.68;;
23146;SDS011;11742;53.532;-1.478;2022-11-22T01:53:35;0.98;;;0.40;;
23146;SDS011;11742;53.532;-1.478;2022-11-22T01:56:03;0.95;;;0.57;;
23146;SDS011;11742;53.532;-1.478;2022-11-22T01:58:33;0.63;;;0.50;;
23146;SDS011;11742;53.532;-1.478;2022-11-22T02:01:02;0.40;;;0.40;;
23146;SDS011;11742;53.532;-1.478;2022-11-22T02:03:28;0.45;;;0.45;;
23146;SDS011;11742;53.532;-1.478;2022-11-22T02:05:55;0.40;;;0.40;;
23146;SDS011;11742;53.532;-1.478;2022-11-22T02:08:24;1.05;;;0.57;;
23146;SDS011;11742;53.532;-1.478;2022-11-22T02:11:00;0.47;;;0.47;;
23146;SDS011;11742;53.532;-1.478;2022-11-22T02:13:27;0.50;;;0.50;;
23146;SDS011;11742;53.532;-1.478;2022-11-22T02:15:54;1.95;;;0.60;;
23146;SDS011;11742;53.532;-1.478;2022-11-22T02:18:20;0.60;;;0.60;;
23146;SDS011;11742;53.532;-1.478;2022-11-22T02:20:46;0.80;;;0.50;;
23146;SDS011;11742;53.532;-1.478;2022-11-22T02:26:02;2.92;;;0.50;;
23146;SDS011;11742;53.532;-1.478;2022-11-22T02:28:28;1.75;;;0.50;;
23146;SDS011;11742;53.532;-1.478;2022-11-22T02:30:58;0.93;;;0.50;;
23146;SDS011;11742;53.532;-1.478;2022-11-22T02:33:24;0.90;;;0.60;;
23146;SDS011;11742;53.532;-1.478;2022-11-22T02:35:49;0.40;;;0.40;;
23146;SDS011;11742;53.532;-1.478;2022-11-22T02:38:16;0.95;;;0.50;;
23146;SDS011;11742;53.532;-1.478;2022-11-22T02:40:49;0.68;;;0.50;;
23146;SDS011;11742;53.532;-1.478;2022-11-22T02:43:19;0.90;;;0.40;;
23146;SDS011;11742;53.532;-1.478;2022-11-22T02:45:47;0.82;;;0.50;;
23146;SDS011;11742;53.532;-1.478;2022-11-22T02:48:14;1.50;;;0.60;;
23146;SDS011;11742;53.532;-1.478;2022-11-22T02:50:41;0.57;;;0.50;;
23146;SDS011;11742;53.532;-1.478;2022-11-22T02:53:07;0.93;;;0.60;;
23146;SDS011;11742;53.532;-1.478;2022-11-22T02:55:34;1.00;;;0.60;;
23146;SDS011;11742;53.532;-1.478;2022-11-22T02:58:01;0.75;;;0.40;;
23146;SDS011;11742;53.532;-1.478;2022-11-22T03:00:29;0.43;;;0.43;;
23146;SDS011;11742;53.532;-1.478;2022-11-22T03:02:59;1.17;;;0.68;;
23146;SDS011;11742;53.532;-1.478;2022-11-22T03:05:25;1.52;;;0.88;;
23146;SDS011;11742;53.532;-1.478;2022-11-22T03:07:51;1.67;;;0.50;;
23146;SDS011;11742;53.532;-1.478;2022-11-22T03:10:16;2.95;;;0.43;;
23146;SDS011;11742;53.532;-1.478;2022-11-22T03:12:42;0.45;;;0.45;;
23146;SDS011;11742;53.532;-1.478;2022-11-22T03:15:08;1.00;;;0.57;;
23146;SDS011;11742;53.532;-1.478;2022-11-22T03:17:34;0.30;;;0.30;;
23146;SDS011;11742;53.532;-1.478;2022-11-22T03:19:59;0.98;;;0.55;;
23146;SDS011;11742;53.532;-1.478;2022-11-22T03:22:25;0.60;;;0.40;;
23146;SDS011;11742;53.532;-1.478;2022-11-22T03:24:51;0.40;;;0.40;;
23146;SDS011;11742;53.532;-1.478;2022-11-22T03:27:16;0.65;;;0.40;;
23146;SDS011;11742;53.532;-1.478;2022-11-22T03:29:42;0.45;;;0.40;;
23146;SDS011;11742;53.532;-1.478;2022-11-22T03:32:08;1.20;;;0.52;;
23146;SDS011;11742;53.532;-1.478;2022-11-22T03:34:34;0.70;;;0.40;;
23146;SDS011;11742;53.532;-1.478;2022-11-22T03:36:59;0.57;;;0.50;;
23146;SDS011;11742;53.532;-1.478;2022-11-22T03:39:25;0.82;;;0.40;;
23146;SDS011;11742;53.532;-1.478;2022-11-22T03:41:50;0.85;;;0.40;;
23146;SDS011;11742;53.532;-1.478;2022-11-22T03:44:16;0.50;;;0.50;;
23146;SDS011;11742;53.532;-1.478;2022-11-22T03:46:42;0.73;;;0.40;;
23146;SDS011;11742;53.532;-1.478;2022-11-22T03:49:09;0.57;;;0.45;;
23146;SDS011;11742;53.532;-1.478;2022-11-22T03:51:34;0.57;;;0.50;;
23146;SDS011;11742;53.532;-1.478;2022-11-22T03:54:00;0.73;;;0.50;;
23146;SDS011;11742;53.532;-1.478;2022-11-22T03:56:26;0.65;;;0.40;;
23146;SDS011;11742;53.532;-1.478;2022-11-22T03:58:51;0.40;;;0.40;;
23146;SDS011;11742;53.532;-1.478;2022-11-22T04:01:17;1.10;;;0.57;;
23146;SDS011;11742;53.532;-1.478;2022-11-22T04:03:43;0.68;;;0.52;;
23146;SDS011;11742;53.532;-1.478;2022-11-22T04:06:08;1.88;;;0.50;;
23146;SDS011;11742;53.532;-1.478;2022-11-22T04:08:34;0.32;;;0.32;;
23146;SDS011;11742;53.532;-1.478;2022-11-22T04:11:00;0.80;;;0.80;;
23146;SDS011;11742;53.532;-1.478;2022-11-22T04:13:25;1.23;;;0.57;;
23146;SDS011;11742;53.532;-1.478;2022-11-22T04:16:11;0.65;;;0.50;;
23146;SDS011;11742;53.532;-1.478;2022-11-22T04:18:36;0.50;;;0.45;;
23146;SDS011;11742;53.532;-1.478;2022-11-22T04:21:02;0.65;;;0.50;;
23146;SDS011;11742;53.532;-1.478;2022-11-22T04:23:46;0.55;;;0.50;;
23146;SDS011;11742;53.532;-1.478;2022-11-22T04:26:32;0.40;;;0.40;;
23146;SDS011;11742;53.532;-1.478;2022-11-22T04:28:57;0.63;;;0.35;;
23146;SDS011;11742;53.532;-1.478;2022-11-22T04:31:23;0.68;;;0.40;;
23146;SDS011;11742;53.532;-1.478;2022-11-22T04:34:07;1.98;;;0.40;;
23146;SDS011;11742;53.532;-1.478;2022-11-22T04:36:33;1.42;;;0.40;;
23146;SDS011;11742;53.532;-1.478;2022-11-22T04:38:58;0.43;;;0.35;;
23146;SDS011;11742;53.532;-1.478;2022-11-22T04:41:24;1.75;;;0.47;;
23146;SDS011;11742;53.532;-1.478;2022-11-22T04:43:49;0.60;;;0.40;;
23146;SDS011;11742;53.532;-1.478;2022-11-22T04:46:34;2.75;;;0.50;;
23146;SDS011;11742;53.532;-1.478;2022-11-22T04:48:59;0.80;;;0.40;;
23146;SDS011;11742;53.532;-1.478;2022-11-22T04:51:25;0.30;;;0.30;;
23146;SDS011;11742;53.532;-1.478;2022-11-22T04:54:09;0.55;;;0.40;;
23146;SDS011;11742;53.532;-1.478;2022-11-22T04:56:35;2.08;;;1.00;;
23146;SDS011;11742;53.532;-1.478;2022-11-22T04:59:00;1.25;;;0.30;;
23146;SDS011;11742;53.532;-1.478;2022-11-22T05:01:26;0.70;;;0.38;;
23146;SDS011;11742;53.532;-1.478;2022-11-22T05:03:51;0.30;;;0.30;;
23146;SDS011;11742;53.532;-1.478;2022-11-22T05:06:17;0.40;;;0.40;;
23146;SDS011;11742;53.532;-1.478;2022-11-22T05:08:43;0.80;;;0.55;;
23146;SDS011;11742;53.532;-1.478;2022-11-22T05:11:08;0.60;;;0.40;;
23146;SDS011;11742;53.532;-1.478;2022-11-22T05:13:38;1.17;;;0.50;;
23146;SDS011;11742;53.532;-1.478;2022-11-22T05:16:06;0.95;;;0.40;;
23146;SDS011;11742;53.532;-1.478;2022-11-22T05:18:33;0.60;;;0.45;;
23146;SDS011;11742;53.532;-1.478;2022-11-22T05:21:06;0.95;;;0.40;;
23146;SDS011;11742;53.532;-1.478;2022-11-22T05:23:34;0.60;;;0.50;;
23146;SDS011;11742;53.532;-1.478;2022-11-22T05:28:48;1.90;;;0.32;;
23146;SDS011;11742;53.532;-1.478;2022-11-22T05:31:15;0.30;;;0.30;;
23146;SDS011;11742;53.532;-1.478;2022-11-22T05:33:43;1.55;;;0.32;;
23146;SDS011;11742;53.532;-1.478;2022-11-22T05:36:10;0.47;;;0.35;;
23146;SDS011;11742;53.532;-1.478;2022-11-22T05:38:36;0.50;;;0.30;;
23146;SDS011;11742;53.532;-1.478;2022-11-22T05:41:02;2.17;;;0.55;;
23146;SDS011;11742;53.532;-1.478;2022-11-22T05:43:29;0.45;;;0.40;;
23146;SDS011;11742;53.532;-1.478;2022-11-22T05:46:02;0.30;;;0.30;;
23146;SDS011;11742;53.532;-1.478;2022-11-22T05:48:35;1.92;;;0.40;;
23146;SDS011;11742;53.532;-1.478;2022-11-22T05:51:03;0.73;;;0.45;;
23146;SDS011;11742;53.532;-1.478;2022-11-22T05:53:30;0.40;;;0.40;;
23146;SDS011;11742;53.532;-1.478;2022-11-22T05:55:55;1.75;;;0.55;;
23146;SDS011;11742;53.532;-1.478;2022-11-22T05:58:21;0.35;;;0.35;;
23146;SDS011;11742;53.532;-1.478;2022-11-22T06:00:47;0.63;;;0.40;;
23146;SDS011;11742;53.532;-1.478;2022-11-22T06:03:12;0.45;;;0.43;;
23146;SDS011;11742;53.532;-1.478;2022-11-22T06:05:38;1.23;;;0.40;;
23146;SDS011;11742;53.532;-1.478;2022-11-22T06:08:03;2.05;;;0.50;;
23146;SDS011;11742;53.532;-1.478;2022-11-22T06:10:29;0.80;;;0.35;;
23146;SDS011;11742;53.532;-1.478;2022-11-22T06:12:55;0.65;;;0.47;;
23146;SDS011;11742;53.532;-1.478;2022-11-22T06:15:20;1.73;;;0.40;;
23146;SDS011;11742;53.532;-1.478;2022-11-22T06:17:46;0.63;;;0.40;;
23146;SDS011;11742;53.532;-1.478;2022-11-22T06:20:12;0.40;;;0.40;;
23146;SDS011;11742;53.532;-1.478;2022-11-22T06:22:37;1.00;;;0.50;;
23146;SDS011;11742;53.532;-1.478;2022-11-22T06:25:03;2.50;;;0.68;;
23146;SDS011;11742;53.532;-1.478;2022-11-22T06:27:30;0.40;;;0.40;;
23146;SDS011;11742;53.532;-1.478;2022-11-22T06:29:55;0.80;;;0.30;;
23146;SDS011;11742;53.532;-1.478;2022-11-22T06:32:21;0.70;;;0.40;;
23146;SDS011;11742;53.532;-1.478;2022-11-22T06:34:47;0.70;;;0.30;;
23146;SDS011;11742;53.532;-1.478;2022-11-22T06:37:15;0.30;;;0.30;;
23146;SDS011;11742;53.532;-1.478;2022-11-22T06:39:41;0.30;;;0.30;;
23146;SDS011;11742;53.532;-1.478;2022-11-22T06:42:07;0.30;;;0.30;;
23146;SDS011;11742;53.532;-1.478;2022-11-22T06:44:32;1.20;;;0.40;;
23146;SDS011;11742;53.532;-1.478;2022-11-22T06:46:58;0.85;;;0.40;;
23146;SDS011;11742;53.532;-1.478;2022-11-22T06:49:24;2.38;;;0.40;;
23146;SDS011;11742;53.532;-1.478;2022-11-22T06:51:50;1.35;;;0.35;;
23146;SDS011;11742;53.532;-1.478;2022-11-22T06:54:15;0.73;;;0.40;;
23146;SDS011;11742;53.532;-1.478;2022-11-22T06:56:41;0.50;;;0.30;;
23146;SDS011;11742;53.532;-1.478;2022-11-22T06:59:07;1.77;;;0.50;;
23146;SDS011;11742;53.532;-1.478;2022-11-22T07:01:34;0.40;;;0.40;;
23146;SDS011;11742;53.532;-1.478;2022-11-22T07:04:01;1.27;;;0.57;;
23146;SDS011;11742;53.532;-1.478;2022-11-22T07:06:31;0.75;;;0.38;;
23146;SDS011;11742;53.532;-1.478;2022-11-22T07:09:04;1.33;;;0.40;;
23146;SDS011;11742;53.532;-1.478;2022-11-22T07:11:32;0.70;;;0.50;;
23146;SDS011;11742;53.532;-1.478;2022-11-22T07:13:59;0.57;;;0.30;;
23146;SDS011;11742;53.532;-1.478;2022-11-22T07:16:25;2.70;;;0.70;;
23146;SDS011;11742;53.532;-1.478;2022-11-22T07:18:51;1.60;;;0.55;;
23146;SDS011;11742;53.532;-1.478;2022-11-22T07:21:18;0.40;;;0.40;;
23146;SDS011;11742;53.532;-1.478;2022-11-22T07:23:46;1.48;;;0.60;;
23146;SDS011;11742;53.532;-1.478;2022-11-22T07:26:14;1.02;;;0.55;;
23146;SDS011;11742;53.532;-1.478;2022-11-22T07:28:41;1.20;;;0.32;;
23146;SDS011;11742;53.532;-1.478;2022-11-22T07:31:08;1.05;;;0.40;;
23146;SDS011;11742;53.532;-1.478;2022-11-22T07:33:35;1.10;;;0.55;;
23146;SDS011;11742;53.532;-1.478;2022-11-22T07:36:05;0.60;;;0.50;;
23146;SDS011;11742;53.532;-1.478;2022-11-22T07:38:32;1.08;;;0.50;;
23146;SDS011;11742;53.532;-1.478;2022-11-22T07:40:58;1.95;;;0.60;;
23146;SDS011;11742;53.532;-1.478;2022-11-22T07:43:24;0.50;;;0.40;;
23146;SDS011;11742;53.532;-1.478;2022-11-22T07:45:50;0.75;;;0.45;;
23146;SDS011;11742;53.532;-1.478;2022-11-22T07:48:16;1.05;;;0.43;;
23146;SDS011;11742;53.532;-1.478;2022-11-22T07:50:41;0.88;;;0.50;;
23146;SDS011;11742;53.532;-1.478;2022-11-22T07:53:07;0.80;;;0.45;;
23146;SDS011;11742;53.532;-1.478;2022-11-22T07:55:34;1.00;;;0.60;;
23146;SDS011;11742;53.532;-1.478;2022-11-22T07:58:00;1.33;;;0.70;;
23146;SDS011;11742;53.532;-1.478;2022-11-22T08:00:26;0.55;;;0.40;;
23146;SDS011;11742;53.532;-1.478;2022-11-22T08:02:52;0.90;;;0.50;;
23146;SDS011;11742;53.532;-1.478;2022-11-22T08:05:18;0.70;;;0.40;;
23146;SDS011;11742;53.532;-1.478;2022-11-22T08:07:44;1.67;;;0.43;;
23146;SDS011;11742;53.532;-1.478;2022-11-22T08:10:11;1.70;;;1.00;;
23146;SDS011;11742;53.532;-1.478;2022-11-22T08:12:37;0.55;;;0.50;;
23146;SDS011;11742;53.532;-1.478;2022-11-22T08:15:03;1.35;;;0.68;;
23146;SDS011;11742;53.532;-1.478;2022-11-22T08:17:29;1.40;;;0.60;;
23146;SDS011;11742;53.532;-1.478;2022-11-22T08:19:55;3.05;;;0.60;;
23146;SDS011;11742;53.532;-1.478;2022-11-22T08:22:21;1.60;;;0.50;;
23146;SDS011;11742;53.532;-1.478;2022-11-22T08:24:46;0.82;;;0.50;;
23146;SDS011;11742;53.532;-1.478;2022-11-22T08:27:12;0.47;;;0.47;;
23146;SDS011;11742;53.532;-1.478;2022-11-22T08:29:37;2.50;;;0.73;;
23146;SDS011;11742;53.532;-1.478;2022-11-22T08:32:03;3.47;;;0.60;;
23146;SDS011;11742;53.532;-1.478;2022-11-22T08:34:29;1.70;;;0.65;;
23146;SDS011;11742;53.532;-1.478;2022-11-22T08:36:54;2.72;;;0.63;;
23146;SDS011;11742;53.532;-1.478;2022-11-22T08:39:20;0.65;;;0.60;;
23146;SDS011;11742;53.532;-1.478;2022-11-22T08:41:46;0.60;;;0.40;;
23146;SDS011;11742;53.532;-1.478;2022-11-22T08:44:12;0.98;;;0.68;;
23146;SDS011;11742;53.532;-1.478;2022-11-22T08:46:38;1.70;;;0.85;;
23146;SDS011;11742;53.532;-1.478;2022-11-22T08:49:03;1.73;;;0.70;;
23146;SDS011;11742;53.532;-1.478;2022-11-22T08:51:30;1.00;;;0.63;;
23146;SDS011;11742;53.532;-1.478;2022-11-22T08:53:57;1.08;;;0.50;;
23146;SDS011;11742;53.532;-1.478;2022-11-22T08:56:23;1.73;;;0.60;;
23146;SDS011;11742;53.532;-1.478;2022-11-22T08:58:48;0.50;;;0.50;;
23146;SDS011;11742;53.532;-1.478;2022-11-22T09:01:15;2.42;;;0.60;;
23146;SDS011;11742;53.532;-1.478;2022-11-22T09:03:43;1.45;;;0.70;;
23146;SDS011;11742;53.532;-1.478;2022-11-22T09:06:11;1.13;;;0.73;;
23146;SDS011;11742;53.532;-1.478;2022-11-22T09:08:38;3.67;;;1.05;;
23146;SDS011;11742;53.532;-1.478;2022-11-22T09:11:05;7.30;;;1.63;;
23146;SDS011;11742;53.532;-1.478;2022-11-22T09:13:33;7.78;;;1.70;;
23146;SDS011;11742;53.532;-1.478;2022-11-22T09:16:02;7.88;;;1.80;;
23146;SDS011;11742;53.532;-1.478;2022-11-22T09:18:28;6.05;;;0.98;;
23146;SDS011;11742;53.532;-1.478;2022-11-22T09:20:57;3.95;;;1.10;;
23146;SDS011;11742;53.532;-1.478;2022-11-22T09:23:27;7.15;;;1.42;;
23146;SDS011;11742;53.532;-1.478;2022-11-22T09:25:59;6.03;;;1.17;;
23146;SDS011;11742;53.532;-1.478;2022-11-22T09:28:27;1.75;;;0.90;;
23146;SDS011;11742;53.532;-1.478;2022-11-22T09:31:03;2.13;;;0.88;;
23146;SDS011;11742;53.532;-1.478;2022-11-22T09:33:31;2.88;;;1.10;;
23146;SDS011;11742;53.532;-1.478;2022-11-22T09:35:59;2.08;;;1.00;;
23146;SDS011;11742;53.532;-1.478;2022-11-22T09:38:25;2.75;;;0.80;;
23146;SDS011;11742;53.532;-1.478;2022-11-22T09:40:51;2.08;;;0.88;;
23146;SDS011;11742;53.532;-1.478;2022-11-22T09:46:01;2.03;;;1.00;;
23146;SDS011;11742;53.532;-1.478;2022-11-22T09:51:41;0.65;;;0.60;;
23146;SDS011;11742;53.532;-1.478;2022-11-22T09:54:14;3.70;;;1.00;;
23146;SDS011;11742;53.532;-1.478;2022-11-22T09:56:45;1.20;;;0.77;;
23146;SDS011;11742;53.532;-1.478;2022-11-22T09:59:14;2.22;;;1.27;;
23146;SDS011;11742;53.532;-1.478;2022-11-22T10:01:46;2.97;;;0.98;;
23146;SDS011;11742;53.532;-1.478;2022-11-22T10:04:23;1.20;;;0.80;;
23146;SDS011;11742;53.532;-1.478;2022-11-22T10:06:54;1.92;;;0.75;;
23146;SDS011;11742;53.532;-1.478;2022-11-22T10:09:41;2.20;;;0.80;;
23146;SDS011;11742;53.532;-1.478;2022-11-22T10:12:16;3.17;;;1.08;;
23146;SDS011;11742;53.532;-1.478;2022-11-22T10:14:52;1.65;;;0.88;;
23146;SDS011;11742;53.532;-1.478;2022-11-22T10:20:29;1.23;;;0.73;;
23146;SDS011;11742;53.532;-1.478;2022-11-22T10:22:58;1.17;;;0.82;;
23146;SDS011;11742;53.532;-1.478;2022-11-22T10:28:12;1.45;;;0.60;;
23146;SDS011;11742;53.532;-1.478;2022-11-22T10:30:43;1.15;;;0.70;;
23146;SDS011;11742;53.532;-1.478;2022-11-22T10:33:39;1.70;;;0.80;;
23146;SDS011;11742;53.532;-1.478;2022-11-22T10:41:45;0.90;;;0.70;;
23146;SDS011;11742;53.532;-1.478;2022-11-22T10:44:29;1.02;;;0.70;;
23146;SDS011;11742;53.532;-1.478;2022-11-22T10:53:29;10.80;;;3.65;;
23146;SDS011;11742;53.532;-1.478;2022-11-22T11:04:59;3.97;;;2.60;;
23146;SDS011;11742;53.532;-1.478;2022-11-22T11:07:28;7.63;;;2.30;;
23146;SDS011;11742;53.532;-1.478;2022-11-22T11:09:56;8.15;;;2.08;;
23146;SDS011;11742;53.532;-1.478;2022-11-22T11:12:38;7.57;;;3.25;;
23146;SDS011;11742;53.532;-1.478;2022-11-22T11:15:15;7.15;;;2.13;;
23146;SDS011;11742;53.532;-1.478;2022-11-22T11:17:43;4.30;;;1.90;;
23146;SDS011;11742;53.532;-1.478;2022-11-22T11:20:27;4.57;;;1.70;;
23146;SDS011;11742;53.532;-1.478;2022-11-22T11:22:55;5.80;;;2.10;;
23146;SDS011;11742;53.532;-1.478;2022-11-22T11:28:00;6.63;;;1.92;;
23146;SDS011;11742;53.532;-1.478;2022-11-22T11:30:46;6.87;;;2.00;;
23146;SDS011;11742;53.532;-1.478;2022-11-22T11:33:25;4.68;;;1.70;;
23146;SDS011;11742;53.532;-1.478;2022-11-22T11:35:55;4.10;;;1.60;;
23146;SDS011;11742;53.532;-1.478;2022-11-22T11:38:36;6.82;;;1.50;;
23146;SDS011;11742;53.532;-1.478;2022-11-22T11:41:19;4.65;;;1.42;;
23146;SDS011;11742;53.532;-1.478;2022-11-22T11:44:03;6.55;;;1.77;;
23146;SDS011;11742;53.532;-1.478;2022-11-22T11:49:08;2.72;;;1.20;;
23146;SDS011;11742;53.532;-1.478;2022-11-22T11:51:39;3.28;;;1.20;;
23146;SDS011;11742;53.532;-1.478;2022-11-22T11:54:14;6.43;;;2.08;;
23146;SDS011;11742;53.532;-1.478;2022-11-22T11:56:59;2.00;;;1.10;;
23146;SDS011;11742;53.532;-1.478;2022-11-22T12:02:01;1.40;;;1.17;;
23146;SDS011;11742;53.532;-1.478;2022-11-22T12:04:53;2.20;;;1.20;;
23146;SDS011;11742;53.532;-1.478;2022-11-22T12:07:45;4.72;;;1.10;;
23146;SDS011;11742;53.532;-1.478;2022-11-22T12:13:05;3.90;;;1.00;;
23146;SDS011;11742;53.532;-1.478;2022-11-22T12:16:02;2.67;;;1.08;;
23146;SDS011;11742;53.532;-1.478;2022-11-22T12:18:47;2.03;;;1.10;;
23146;SDS011;11742;53.532;-1.478;2022-11-22T12:24:18;3.88;;;1.08;;
23146;SDS011;11742;53.532;-1.478;2022-11-22T12:26:56;2.75;;;1.17;;
23146;SDS011;11742;53.532;-1.478;2022-11-22T12:29:21;4.55;;;1.05;;
23146;SDS011;11742;53.532;-1.478;2022-11-22T12:32:01;6.45;;;1.73;;
23146;SDS011;11742;53.532;-1.478;2022-11-22T12:34:48;7.88;;;1.70;;
23146;SDS011;11742;53.532;-1.478;2022-11-22T12:37:35;6.55;;;1.35;;
23146;SDS011;11742;53.532;-1.478;2022-11-22T12:40:24;4.45;;;1.15;;
23146;SDS011;11742;53.532;-1.478;2022-11-22T12:42:59;7.63;;;1.40;;
23146;SDS011;11742;53.532;-1.478;2022-11-22T12:46:02;6.32;;;1.20;;
23146;SDS011;11742;53.532;-1.478;2022-11-22T12:48:33;5.40;;;1.40;;
23146;SDS011;11742;53.532;-1.478;2022-11-22T12:51:20;3.60;;;1.00;;
23146;SDS011;11742;53.532;-1.478;2022-11-22T12:53:50;3.20;;;1.45;;
23146;SDS011;11742;53.532;-1.478;2022-11-22T13:01:45;2.42;;;0.90;;
23146;SDS011;11742;53.532;-1.478;2022-11-22T13:04:26;2.80;;;0.88;;
23146;SDS011;11742;53.532;-1.478;2022-11-22T13:09:57;3.28;;;1.45;;
23146;SDS011;11742;53.532;-1.478;2022-11-22T13:12:33;3.72;;;1.05;;
23146;SDS011;11742;53.532;-1.478;2022-11-22T13:15:02;2.97;;;1.08;;
23146;SDS011;11742;53.532;-1.478;2022-11-22T13:17:32;4.13;;;1.00;;
23146;SDS011;11742;53.532;-1.478;2022-11-22T13:20:07;1.50;;;0.70;;
23146;SDS011;11742;53.532;-1.478;2022-11-22T13:28:10;1.52;;;0.90;;
23146;SDS011;11742;53.532;-1.478;2022-11-22T13:30:38;2.53;;;1.00;;
23146;SDS011;11742;53.532;-1.478;2022-11-22T13:33:04;1.85;;;0.70;;
23146;SDS011;11742;53.532;-1.478;2022-11-22T13:35:46;1.60;;;0.75;;
23146;SDS011;11742;53.532;-1.478;2022-11-22T13:38:15;2.90;;;0.93;;
23146;SDS011;11742;53.532;-1.478;2022-11-22T13:45:57;2.15;;;0.85;;
23146;SDS011;11742;53.532;-1.478;2022-11-22T13:53:36;3.75;;;1.23;;
23146;SDS011;11742;53.532;-1.478;2022-11-22T13:56:45;2.03;;;0.80;;
23146;SDS011;11742;53.532;-1.478;2022-11-22T13:59:16;3.00;;;1.00;;
23146;SDS011;11742;53.532;-1.478;2022-11-22T14:07:03;3.35;;;1.33;;
23146;SDS011;11742;53.532;-1.478;2022-11-22T14:09:52;1.60;;;1.00;;
23146;SDS011;11742;53.532;-1.478;2022-11-22T14:29:05;2.70;;;0.90;;
23146;SDS011;11742;53.532;-1.478;2022-11-22T14:31:52;1.17;;;0.95;;
23146;SDS011;11742;53.532;-1.478;2022-11-22T14:34:37;2.17;;;1.38;;
23146;SDS011;11742;53.532;-1.478;2022-11-22T14:45:21;1.20;;;0.90;;
23146;SDS011;11742;53.532;-1.478;2022-11-22T14:50:33;0.98;;;0.75;;
23146;SDS011;11742;53.532;-1.478;2022-11-22T14:53:17;1.63;;;0.90;;
23146;SDS011;11742;53.532;-1.478;2022-11-22T14:55:44;1.60;;;1.00;;
23146;SDS011;11742;53.532;-1.478;2022-11-22T14:58:12;0.68;;;0.68;;
23146;SDS011;11742;53.532;-1.478;2022-11-22T15:03:40;2.08;;;1.05;;
23146;SDS011;11742;53.532;-1.478;2022-11-22T15:09:50;2.47;;;1.00;;
23146;SDS011;11742;53.532;-1.478;2022-11-22T15:17:49;1.90;;;0.93;;
23146;SDS011;11742;53.532;-1.478;2022-11-22T15:20:34;2.22;;;0.80;;
23146;SDS011;11742;53.532;-1.478;2022-11-22T15:25:36;1.52;;;0.80;;
23146;SDS011;11742;53.532;-1.478;2022-11-22T15:28:02;1.25;;;0.85;;
23146;SDS011;11742;53.532;-1.478;2022-11-22T15:30:28;3.95;;;1.00;;
23146;SDS011;11742;53.532;-1.478;2022-11-22T15:32:54;1.70;;;0.80;;
23146;SDS011;11742;53.532;-1.478;2022-11-22T15:35:29;0.95;;;0.85;;
23146;SDS011;11742;53.532;-1.478;2022-11-22T15:38:02;1.55;;;1.02;;
23146;SDS011;11742;53.532;-1.478;2022-11-22T15:40:34;1.20;;;1.00;;
23146;SDS011;11742;53.532;-1.478;2022-11-22T15:43:02;1.92;;;1.00;;
23146;SDS011;11742;53.532;-1.478;2022-11-22T15:45:29;3.35;;;1.00;;
23146;SDS011;11742;53.532;-1.478;2022-11-22T15:48:05;1.15;;;0.77;;
23146;SDS011;11742;53.532;-1.478;2022-11-22T15:50:36;1.50;;;0.77;;
23146;SDS011;11742;53.532;-1.478;2022-11-22T15:53:17;1.55;;;0.70;;
23146;SDS011;11742;53.532;-1.478;2022-11-22T15:58:51;4.25;;;1.17;;
23146;SDS011;11742;53.532;-1.478;2022-11-22T16:01:19;1.13;;;0.85;;
23146;SDS011;11742;53.532;-1.478;2022-11-22T16:03:50;1.75;;;0.77;;
23146;SDS011;11742;53.532;-1.478;2022-11-22T16:06:18;1.23;;;0.90;;
23146;SDS011;11742;53.532;-1.478;2022-11-22T16:08:54;1.95;;;0.82;;
23146;SDS011;11742;53.532;-1.478;2022-11-22T16:13:51;2.33;;;0.85;;
23146;SDS011;11742;53.532;-1.478;2022-11-22T16:16:24;0.82;;;0.65;;
23146;SDS011;11742;53.532;-1.478;2022-11-22T16:18:51;1.73;;;0.80;;
23146;SDS011;11742;53.532;-1.478;2022-11-22T16:21:29;1.65;;;0.70;;
23146;SDS011;11742;53.532;-1.478;2022-11-22T16:24:08;1.00;;;0.77;;
23146;SDS011;11742;53.532;-1.478;2022-11-22T16:26:40;0.93;;;0.70;;
23146;SDS011;11742;53.532;-1.478;2022-11-22T16:29:27;1.88;;;0.95;;
23146;SDS011;11742;53.532;-1.478;2022-11-22T16:31:59;1.75;;;1.42;;
23146;SDS011;11742;53.532;-1.478;2022-11-22T16:34:35;0.63;;;0.63;;
23146;SDS011;11742;53.532;-1.478;2022-11-22T16:37:21;2.78;;;0.73;;
23146;SDS011;11742;53.532;-1.478;2022-11-22T16:39:48;1.70;;;0.70;;
23146;SDS011;11742;53.532;-1.478;2022-11-22T16:42:14;1.25;;;0.80;;
23146;SDS011;11742;53.532;-1.478;2022-11-22T16:44:40;1.88;;;0.90;;
23146;SDS011;11742;53.532;-1.478;2022-11-22T16:47:08;0.90;;;0.70;;
23146;SDS011;11742;53.532;-1.478;2022-11-22T16:49:39;2.20;;;0.70;;
23146;SDS011;11742;53.532;-1.478;2022-11-22T16:52:08;1.02;;;0.63;;
23146;SDS011;11742;53.532;-1.478;2022-11-22T16:54:38;1.27;;;0.77;;
23146;SDS011;11742;53.532;-1.478;2022-11-22T16:57:09;1.10;;;0.63;;
23146;SDS011;11742;53.532;-1.478;2022-11-22T16:59:35;0.60;;;0.60;;